Time;durP1;ratioP1;P1;durP2;ratioP2;P2;SDS_P1;SDS_P2;PMS_P1;PMS_P2;Temp;Humidity;BMP_temperature;BMP_pressure;BME280_temperature;BME280_humidity;BME280_pressure;Samples;Min_cycle;Max_cycle;Signal;HPM_P1;HPM_P2
2021/08/18 00:00:48;;;;;;;6.38;2.20;;;;;;;29.25;57.73;100940.22;5058126;27;70142;-38
2021/08/18 00:03:19;;;;;;;4.72;1.17;;;;;;;29.26;57.39;100933.78;5060003;28;66830;-38
2021/08/18 00:05:49;;;;;;;11.32;2.35;;;;;;;29.31;59.17;100936.69;5059520;28;69463;-38
2021/08/18 00:08:19;;;;;;;14.32;3.33;;;;;;;29.33;59.26;100940.00;5056852;28;66040;-39
2021/08/18 00:10:50;;;;;;;4.88;3.05;;;;;;;29.31;59.67;100944.81;5060673;28;70496;-39
2021/08/18 00:13:23;;;;;;;4.45;2.97;;;;;;;29.24;59.27;100926.94;5062718;28;65803;-39
2021/08/18 00:15:56;;;;;;;7.05;2.80;;;;;;;29.38;59.75;100956.44;5061801;28;69285;-39
2021/08/18 00:18:27;;;;;;;4.40;2.33;;;;;;;29.36;59.93;100944.16;5047219;28;66143;-39
2021/08/18 00:20:58;;;;;;;8.03;2.53;;;;;;;29.39;60.13;100960.81;5062519;27;67431;-39
2021/08/18 00:23:28;;;;;;;7.00;2.28;;;;;;;29.44;59.96;100975.56;5059640;28;66252;-40
2021/08/18 00:25:58;;;;;;;11.07;2.22;;;;;;;29.45;59.55;100963.69;5057690;28;70440;-41
2021/08/18 00:28:29;;;;;;;8.77;2.20;;;;;;;29.47;59.85;100967.03;5064633;28;65171;-38
2021/08/18 00:30:59;;;;;;;13.98;2.17;;;;;;;29.51;59.29;100968.28;5061539;27;70009;-38
2021/08/18 00:33:31;;;;;;;10.07;1.80;;;;;;;29.55;59.57;100962.22;5067053;28;66690;-40
2021/08/18 00:36:01;;;;;;;9.23;1.40;;;;;;;29.52;59.60;100953.72;5066149;28;68708;-39
2021/08/18 00:38:32;;;;;;;10.70;1.85;;;;;;;29.55;59.11;100954.13;5064279;27;66087;-40
2021/08/18 00:41:02;;;;;;;4.97;1.75;;;;;;;29.60;59.32;100961.63;5058147;28;69955;-39
2021/08/18 00:43:33;;;;;;;5.65;1.30;;;;;;;29.60;59.97;100972.44;5059298;28;65365;-39
2021/08/18 00:46:05;;;;;;;6.05;1.40;;;;;;;29.60;59.19;100967.03;5067739;28;70517;-39
2021/08/18 00:48:39;;;;;;;12.57;1.60;;;;;;;29.60;60.03;100967.84;5053793;28;66257;-39
2021/08/18 00:51:09;;;;;;;28.63;3.08;;;;;;;29.68;60.92;100969.53;5059883;28;70488;-39
2021/08/18 00:53:40;;;;;;;15.35;3.83;;;;;;;29.70;61.19;100978.28;5053722;28;66076;-40
2021/08/18 00:56:13;;;;;;;12.32;3.03;;;;;;;29.71;62.08;100979.94;5054532;28;70040;-40
2021/08/18 00:58:44;;;;;;;13.23;3.58;;;;;;;29.72;62.39;100976.19;5058142;28;66361;-40
2021/08/18 01:01:14;;;;;;;12.38;4.45;;;;;;;29.74;63.09;100984.09;5069762;27;70424;-40
2021/08/18 01:03:45;;;;;;;8.63;3.95;;;;;;;29.75;62.54;100975.75;5064911;28;66148;-38
2021/08/18 01:06:15;;;;;;;4.57;3.13;;;;;;;29.78;62.58;100988.03;5063576;28;70081;-39
2021/08/18 01:08:46;;;;;;;8.02;3.50;;;;;;;29.79;63.02;100987.00;5066474;28;65652;-40
2021/08/18 01:11:16;;;;;;;10.55;3.53;;;;;;;29.79;63.09;100987.81;5059536;28;69639;-39
2021/08/18 01:13:48;;;;;;;;;;;;;;;29.55;64.07;100993.84;5060131;28;66478;-38
2021/08/18 01:16:19;;;;;;;6.15;3.20;;;;;;;29.80;63.38;100989.47;5069718;28;69123;-39
2021/08/18 01:18:49;;;;;;;3.05;2.85;;;;;;;29.83;63.17;100988.22;5064119;28;65243;-40
2021/08/18 01:21:20;;;;;;;5.90;3.08;;;;;;;29.87;63.26;100994.06;5065334;28;70628;-40
2021/08/18 01:23:50;;;;;;;3.88;3.13;;;;;;;29.92;63.12;101002.34;5062576;28;66389;-39
2021/08/18 01:26:20;;;;;;;9.30;3.15;;;;;;;29.93;63.82;101004.03;5058341;28;69153;-40
2021/08/18 01:28:51;;;;;;;5.65;3.38;;;;;;;29.96;63.44;101003.59;5065604;28;66250;-40
2021/08/18 01:31:23;;;;;;;3.03;2.70;;;;;;;29.96;63.54;100998.19;5065790;27;70076;-40
2021/08/18 01:33:54;;;;;;;4.38;2.90;;;;;;;30.01;63.66;101007.34;5060161;28;65796;-41
2021/08/18 01:36:24;;;;;;;5.05;3.33;;;;;;;30.03;63.53;101010.69;5065537;28;70155;-40
2021/08/18 01:39:03;;;;;;;4.05;3.40;;;;;;;29.91;63.18;100984.47;5063150;28;65453;-40
2021/08/18 01:41:35;;;;;;;3.05;2.75;;;;;;;30.06;63.62;100998.56;5060148;28;69293;-40
2021/08/18 01:44:06;;;;;;;8.45;2.85;;;;;;;30.09;63.34;100990.06;5064042;27;65583;-40
2021/08/18 01:46:36;;;;;;;6.50;4.18;;;;;;;30.13;63.88;100994.00;5057707;28;70030;-40
2021/08/18 01:49:07;;;;;;;10.32;4.28;;;;;;;30.13;64.08;100982.34;5065256;27;65573;-40
2021/08/18 01:51:37;;;;;;;4.80;4.40;;;;;;;30.17;64.23;100989.84;5065105;28;69168;-41
2021/08/18 01:54:08;;;;;;;9.90;6.38;;;;;;;30.20;64.31;100985.84;5061686;28;66438;-40
2021/08/18 01:56:38;;;;;;;22.50;5.93;;;;;;;30.20;64.43;100981.28;5064717;28;69265;-40
2021/08/18 01:59:09;;;;;;;7.40;5.15;;;;;;;30.19;64.03;100971.50;5054027;28;65879;-40
2021/08/18 02:01:39;;;;;;;7.30;5.13;;;;;;;30.22;64.44;100970.25;5053105;28;70489;-39
2021/08/18 02:04:10;;;;;;;7.45;4.53;;;;;;;30.27;64.72;100974.00;5054956;28;65342;-38
2021/08/18 02:06:40;;;;;;;5.30;4.25;;;;;;;30.31;64.44;100970.84;5061882;28;69134;-39
2021/08/18 02:09:11;;;;;;;8.60;4.68;;;;;;;30.33;64.08;100966.88;5031436;28;65505;-40
2021/08/18 02:11:41;;;;;;;4.50;3.95;;;;;;;30.33;64.41;100963.34;5052810;28;69504;-43
2021/08/18 02:14:11;;;;;;;8.00;4.75;;;;;;;30.37;64.55;100968.13;5059974;28;66264;-39
2021/08/18 02:16:48;;;;;;;4.90;4.53;;;;;;;30.42;64.21;100959.34;5054869;27;70359;-41
2021/08/18 02:19:18;;;;;;;5.35;4.85;;;;;;;30.43;64.16;100967.28;5036416;28;66218;-40
2021/08/18 02:21:49;;;;;;;8.98;4.93;;;;;;;30.45;64.19;100961.63;5057032;28;70356;-40
2021/08/18 02:24:19;;;;;;;9.32;4.60;;;;;;;30.40;63.83;100951.47;5056384;28;66427;-39
2021/08/18 02:26:49;;;;;;;5.05;4.57;;;;;;;30.49;64.05;100960.16;5055434;28;70280;-39
2021/08/18 02:29:20;;;;;;;5.45;5.03;;;;;;;30.52;63.71;100961.59;5060284;28;66801;-39
2021/08/18 02:31:50;;;;;;;5.13;4.53;;;;;;;30.53;63.83;100961.38;5064739;28;70455;-40
2021/08/18 02:34:22;;;;;;;7.10;4.23;;;;;;;30.54;63.52;100952.22;5050157;28;66095;-39
2021/08/18 02:36:53;;;;;;;8.52;4.63;;;;;;;30.57;63.69;100962.63;5053119;27;69943;-40
2021/08/18 02:39:24;;;;;;;5.43;4.63;;;;;;;30.51;63.37;100941.84;5048210;28;66617;-40
2021/08/18 02:41:54;;;;;;;4.70;4.30;;;;;;;30.60;63.72;100962.19;5050913;28;70262;-41
2021/08/18 02:44:25;;;;;;;4.95;4.55;;;;;;;30.59;63.35;100955.13;5054503;28;66711;-40
2021/08/18 02:46:56;;;;;;;4.65;4.35;;;;;;;30.63;62.97;100961.75;5057857;27;69955;-39
2021/08/18 02:49:26;;;;;;;5.18;4.78;;;;;;;30.66;62.77;100960.50;5058481;27;65623;-40
2021/08/18 02:51:56;;;;;;;6.10;5.40;;;;;;;30.65;62.87;100962.38;5057037;28;69971;-39
2021/08/18 02:54:27;;;;;;;8.43;4.63;;;;;;;30.71;63.01;100958.78;5055882;28;65803;-40
2021/08/18 02:56:59;;;;;;;5.13;4.72;;;;;;;30.65;63.21;100950.72;5035351;28;69503;-40
2021/08/18 02:59:32;;;;;;;5.03;4.72;;;;;;;30.73;62.60;100972.94;5049784;28;66290;-40
2021/08/18 03:02:04;;;;;;;7.28;4.78;;;;;;;30.77;62.32;100967.91;5031118;28;70908;-39
2021/08/18 03:04:36;;;;;;;5.40;4.90;;;;;;;30.69;62.58;100946.50;5050968;28;66313;-39
2021/08/18 03:07:07;;;;;;;8.85;4.82;;;;;;;30.81;62.21;100968.34;5052903;28;69574;-38
2021/08/18 03:09:40;;;;;;;4.73;4.43;;;;;;;30.84;62.61;100962.47;5054180;28;66471;-40
2021/08/18 03:12:11;;;;;;;4.55;4.25;;;;;;;30.87;62.42;100956.63;5054914;28;70104;-40
2021/08/18 03:14:43;;;;;;;6.13;4.57;;;;;;;30.84;61.96;100947.09;5050987;28;65423;-39
2021/08/18 03:17:14;;;;;;;11.63;4.78;;;;;;;30.88;61.49;100947.47;5050804;28;69200;-40
2021/08/18 03:19:45;;;;;;;5.83;5.00;;;;;;;30.89;61.24;100949.94;5055181;28;66887;-40
2021/08/18 03:22:17;;;;;;;5.15;4.82;;;;;;;30.92;61.67;100948.69;5057851;27;70143;-41
2021/08/18 03:24:48;;;;;;;5.45;5.15;;;;;;;30.93;61.31;100939.53;5052817;27;65987;-39
2021/08/18 03:27:22;;;;;;;7.40;5.47;;;;;;;30.96;60.83;100947.22;5038115;28;68933;-39
2021/08/18 03:29:54;;;;;;;7.25;6.22;;;;;;;31.00;60.69;100945.72;5057830;28;66115;-40
2021/08/18 03:32:26;;;;;;;7.63;5.55;;;;;;;31.02;61.25;100943.63;5063649;27;70457;-40
2021/08/18 03:34:58;;;;;;;6.00;5.60;;;;;;;31.04;61.21;100943.41;5058498;28;65518;-41
2021/08/18 03:37:30;;;;;;;5.85;5.45;;;;;;;31.09;61.24;100947.13;5053002;27;70193;-38
2021/08/18 03:40:02;;;;;;;6.73;5.50;;;;;;;31.10;61.21;100940.63;5062757;28;66447;-39
2021/08/18 03:42:34;;;;;;;6.97;6.47;;;;;;;31.13;61.04;100939.38;5060947;28;69790;-39
2021/08/18 03:45:06;;;;;;;8.57;5.97;;;;;;;31.14;61.09;100941.00;5056390;28;66437;-39
2021/08/18 03:47:38;;;;;;;6.85;5.50;;;;;;;31.19;60.49;100937.66;5069103;27;70512;-40
2021/08/18 03:50:10;;;;;;;7.03;6.53;;;;;;;31.19;60.71;100933.06;5050257;28;66658;-39
2021/08/18 03:52:43;;;;;;;9.93;5.60;;;;;;;31.24;60.89;100924.28;5047491;28;70434;-40
2021/08/18 03:55:15;;;;;;;7.07;6.45;;;;;;;31.25;60.78;100917.78;5035286;28;65766;-40
2021/08/18 03:57:45;;;;;;;6.72;6.10;;;;;;;31.26;60.85;100911.31;5034000;28;70835;-40
2021/08/18 04:00:16;;;;;;;6.97;6.38;;;;;;;31.29;60.75;100910.91;5051871;28;67051;-40
2021/08/18 04:02:50;;;;;;;6.72;5.80;;;;;;;31.32;60.25;100911.28;5054052;28;70009;-42
2021/08/18 04:05:22;;;;;;;6.40;5.90;;;;;;;31.31;60.13;100898.75;5050275;28;66360;-40
2021/08/18 04:07:53;;;;;;;7.20;5.93;;;;;;;31.36;60.23;100900.84;5052473;28;70127;-39
2021/08/18 04:10:24;;;;;;;6.15;5.75;;;;;;;31.36;60.10;100895.41;5051041;28;66092;-40
2021/08/18 04:12:56;;;;;;;;;;;;;;;31.12;60.31;100892.47;5050004;27;69993;-40
2021/08/18 04:15:37;;;;;;;5.97;5.63;;;;;;;31.08;59.75;100838.94;5053510;28;64040;-40
2021/08/18 04:18:10;;;;;;;6.00;5.57;;;;;;;31.42;60.23;100880.97;5053718;28;69292;-39
2021/08/18 04:20:42;;;;;;;10.38;4.88;;;;;;;31.41;60.17;100865.75;5055478;28;66198;-40
2021/08/18 04:23:13;;;;;;;6.73;5.57;;;;;;;31.38;60.03;100855.38;5053817;28;71253;-39
2021/08/18 04:25:44;;;;;;;13.35;6.20;;;;;;;31.53;59.85;100868.53;5056781;28;65489;-39
2021/08/18 04:28:17;;;;;;;5.47;5.10;;;;;;;31.54;59.64;100860.19;5053815;28;69394;-39
2021/08/18 04:30:50;;;;;;;6.13;5.63;;;;;;;31.58;59.96;100858.69;5052003;28;66345;-40
2021/08/18 04:33:21;;;;;;;6.20;5.72;;;;;;;31.58;60.12;100858.69;5051704;28;71428;-39
2021/08/18 04:35:52;;;;;;;6.47;6.07;;;;;;;31.50;59.74;100841.88;5048667;28;66764;-40
2021/08/18 04:38:39;;;;;;;5.97;5.47;;;;;;;31.60;59.57;100848.44;5052014;28;70532;-39
2021/08/18 04:41:10;;;;;;;6.03;5.43;;;;;;;31.63;59.63;100852.59;5045438;28;65540;-39
2021/08/18 04:44:06;;;;;;;9.73;5.32;;;;;;;31.63;59.32;100849.88;5049753;28;70114;-40
2021/08/18 04:46:36;;;;;;;6.82;5.85;;;;;;;31.65;59.56;100838.78;5052277;28;66839;-39
2021/08/18 04:49:07;;;;;;;7.05;5.80;;;;;;;31.64;59.16;100837.16;5037847;28;69029;-39
2021/08/18 04:51:38;;;;;;;6.20;5.18;;;;;;;31.60;59.50;100829.47;5052080;28;65605;-40
2021/08/18 04:54:10;;;;;;;5.53;5.22;;;;;;;31.61;59.15;100814.03;5051821;28;69126;-40
2021/08/18 04:56:41;;;;;;;5.50;5.20;;;;;;;31.67;59.41;100826.66;5051313;28;64356;-40
2021/08/18 04:59:11;;;;;;;5.00;4.50;;;;;;;31.69;59.04;100818.31;5054165;28;69649;-39
2021/08/18 05:01:42;;;;;;;4.63;4.32;;;;;;;31.73;58.80;100808.66;5050669;28;67547;-39
2021/08/18 05:04:14;;;;;;;4.95;4.65;;;;;;;31.75;59.33;100806.56;5054377;28;70007;-41
2021/08/18 05:06:45;;;;;;;12.17;4.60;;;;;;;31.76;59.16;100794.63;5037826;28;65505;-41
2021/08/18 05:09:16;;;;;;;16.23;4.35;;;;;;;31.78;59.49;100789.81;5059736;27;69762;-40
2021/08/18 05:11:50;;;;;;;5.95;4.88;;;;;;;31.77;58.45;100780.03;5058055;28;65627;-39
2021/08/18 05:14:22;;;;;;;5.05;3.20;;;;;;;31.72;57.37;100779.88;5055606;28;69008;-40
2021/08/18 05:16:53;;;;;;;6.50;3.22;;;;;;;31.64;56.53;100772.06;5052980;28;66254;-41
2021/08/18 05:19:23;;;;;;;11.20;3.33;;;;;;;31.56;55.20;100770.50;5050019;28;70228;-40
2021/08/18 05:21:54;;;;;;;25.40;2.90;;;;;;;31.45;55.22;100763.94;5030026;28;66308;-40
2021/08/18 05:24:25;;;;;;;8.00;2.30;;;;;;;31.40;54.10;100763.81;5048943;28;69891;-39
2021/08/18 05:26:55;;;;;;;23.33;2.70;;;;;;;31.33;53.94;100754.91;5049806;28;66268;-41
2021/08/18 05:29:27;;;;;;;7.65;2.10;;;;;;;31.24;53.18;100750.84;5054236;28;70253;-40
2021/08/18 05:31:58;;;;;;;4.03;1.92;;;;;;;31.20;52.21;100738.78;5057287;28;66357;-40
2021/08/18 05:34:29;;;;;;;13.40;1.50;;;;;;;31.13;52.26;100739.69;5032610;28;70332;-42
2021/08/18 05:37:02;;;;;;;9.57;1.90;;;;;;;31.09;51.14;100733.06;5050433;27;66095;-41
2021/08/18 05:39:32;;;;;;;21.30;1.83;;;;;;;31.05;51.37;100726.44;5051690;28;70522;-41
2021/08/18 05:42:04;;;;;;;10.00;1.70;;;;;;;31.02;50.88;100724.19;5048304;28;65361;-40
2021/08/18 05:44:36;;;;;;;20.55;1.70;;;;;;;30.98;51.06;100714.00;5041032;28;69968;-40
2021/08/18 05:47:07;;;;;;;20.30;1.73;;;;;;;30.95;51.19;100707.16;5053727;28;65042;-40
2021/08/18 05:49:38;;;;;;;18.63;1.93;;;;;;;30.95;50.94;100709.88;5064367;27;70690;-40
2021/08/18 05:52:09;;;;;;;10.27;1.63;;;;;;;30.93;50.88;100702.00;5053116;28;66415;-38
2021/08/18 05:54:40;;;;;;;16.63;1.70;;;;;;;30.88;50.57;100698.28;5050596;28;69828;-41
2021/08/18 05:57:11;;;;;;;17.00;1.95;;;;;;;30.87;50.04;100691.19;5041507;28;66196;-39
2021/08/18 05:59:42;;;;;;;13.03;1.47;;;;;;;30.83;49.64;100690.00;5054591;28;70309;-40
2021/08/18 06:02:13;;;;;;;22.75;2.00;;;;;;;30.84;49.30;100688.94;5052247;28;67148;-41
2021/08/18 06:04:44;;;;;;;16.30;1.50;;;;;;;30.78;48.75;100677.09;5047107;28;70852;-39
2021/08/18 06:07:15;;;;;;;9.77;1.35;;;;;;;30.77;47.75;100671.94;5051990;28;65994;-40
2021/08/18 06:09:46;;;;;;;7.55;1.15;;;;;;;30.73;48.08;100666.16;5055567;28;70410;-40
2021/08/18 06:12:17;;;;;;;2.08;1.02;;;;;;;30.71;47.65;100660.94;5055818;28;66377;-43
2021/08/18 06:14:48;;;;;;;8.80;1.38;;;;;;;30.66;47.38;100658.06;5056680;28;70280;-39
2021/08/18 06:17:19;;;;;;;3.72;1.08;;;;;;;30.63;46.88;100652.28;5060998;28;66397;-40
2021/08/18 06:19:50;;;;;;;4.15;0.80;;;;;;;30.60;46.62;100653.56;5025271;28;70864;-40
2021/08/18 06:22:20;;;;;;;6.95;1.10;;;;;;;30.56;46.22;100644.22;5058389;28;65482;-40
2021/08/18 06:24:51;;;;;;;2.40;0.90;;;;;;;30.54;46.40;100645.53;5059838;28;70546;-40
2021/08/18 06:27:22;;;;;;;1.75;0.80;;;;;;;30.51;45.77;100638.66;5025581;28;65261;-39
2021/08/18 06:29:53;;;;;;;1.48;0.88;;;;;;;30.47;45.79;100629.31;5058524;27;69969;-40
2021/08/18 06:32:24;;;;;;;5.00;1.08;;;;;;;30.47;45.43;100629.31;5060451;28;65768;-40
2021/08/18 06:34:56;;;;;;;7.25;1.00;;;;;;;30.47;45.47;100626.63;5033264;28;70068;-39
2021/08/18 06:37:40;;;;;;;5.82;1.00;;;;;;;30.43;44.75;100611.91;5038483;28;65118;-41
2021/08/18 06:40:12;;;;;;;0.90;0.70;;;;;;;30.49;44.51;100616.41;5039183;28;70617;-43
2021/08/18 06:42:44;;;;;;;6.05;0.90;;;;;;;30.48;45.00;100607.47;5039988;28;65300;-40
2021/08/18 06:45:17;;;;;;;2.95;0.60;;;;;;;30.49;44.62;100597.47;5049741;28;69836;-40
2021/08/18 06:47:48;;;;;;;2.90;0.60;;;;;;;30.52;43.93;100605.13;5055198;28;66306;-39
2021/08/18 06:50:19;;;;;;;3.25;0.70;;;;;;;30.52;43.75;100601.59;5040522;28;70739;-41
2021/08/18 06:52:51;;;;;;;1.13;0.60;;;;;;;30.50;43.92;100588.28;5057623;27;66215;-39
2021/08/18 06:55:23;;;;;;;0.68;0.50;;;;;;;30.51;43.01;100584.53;5054682;28;70289;-40
2021/08/18 06:57:54;;;;;;;3.65;0.70;;;;;;;30.51;43.85;100584.53;5054609;28;66173;-40
2021/08/18 07:00:24;;;;;;;2.28;0.65;;;;;;;30.55;43.24;100583.00;5050545;28;70005;-39
2021/08/18 07:02:55;;;;;;;2.17;0.80;;;;;;;30.54;43.29;100573.25;5054796;28;67405;-38
2021/08/18 07:05:32;;;;;;;5.65;0.70;;;;;;;30.54;42.90;100567.84;5052285;27;70003;-39
2021/08/18 07:08:02;;;;;;;4.85;0.60;;;;;;;30.58;42.99;100546.56;5053872;28;65463;-40
2021/08/18 07:10:34;;;;;;;5.05;0.60;;;;;;;30.54;42.67;100548.91;5055329;28;69916;-40
2021/08/18 07:13:05;;;;;;;2.60;1.05;;;;;;;30.59;42.70;100557.16;5052542;28;64770;-39
2021/08/18 07:15:36;;;;;;;1.35;0.60;;;;;;;30.55;42.34;100544.31;5050215;28;70441;-39
2021/08/18 07:18:07;;;;;;;3.67;0.93;;;;;;;30.60;42.69;100550.69;5052669;28;66551;-40
2021/08/18 07:20:38;;;;;;;10.95;1.17;;;;;;;30.58;42.36;100541.13;5036880;28;69974;-41
2021/08/18 07:23:09;;;;;;;2.05;0.85;;;;;;;30.59;42.44;100537.38;5057485;28;67436;-39
2021/08/18 07:25:40;;;;;;;4.55;0.70;;;;;;;30.57;42.28;100534.91;5052051;28;70055;-38
2021/08/18 07:28:10;;;;;;;1.15;0.52;;;;;;;30.57;41.82;100532.19;5059355;28;66351;-40
2021/08/18 07:30:42;;;;;;;7.40;0.70;;;;;;;30.54;41.86;100529.94;5058592;28;70970;-39
2021/08/18 07:33:12;;;;;;;2.63;0.68;;;;;;;30.46;41.79;100514.84;5043959;28;65517;-39
2021/08/18 07:35:43;;;;;;;1.13;0.70;;;;;;;30.52;41.87;100521.22;5047759;28;70088;-38
2021/08/18 07:38:15;;;;;;;10.35;0.73;;;;;;;30.51;41.63;100519.56;5052238;28;65273;-38
2021/08/18 07:40:47;;;;;;;1.88;0.50;;;;;;;30.51;41.50;100514.16;5050153;28;69251;-38
2021/08/18 07:43:18;;;;;;;4.20;0.73;;;;;;;30.49;41.56;100500.03;5049393;28;66575;-39
2021/08/18 07:45:49;;;;;;;;;;;;;;;30.28;41.32;100504.84;5054773;27;70082;-39
2021/08/18 07:48:20;;;;;;;1.85;0.60;;;;;;;30.53;41.13;100506.63;5060279;28;66427;-39
2021/08/18 07:50:51;;;;;;;3.92;0.63;;;;;;;30.55;41.40;100501.00;5046569;28;69168;-39
2021/08/18 07:53:22;;;;;;;4.03;0.65;;;;;;;30.54;40.98;100494.75;5046754;28;67494;-39
2021/08/18 07:55:53;;;;;;;3.28;0.55;;;;;;;30.57;40.86;100485.34;5053131;28;69315;-39
2021/08/18 07:58:24;;;;;;;3.78;0.70;;;;;;;30.56;40.25;100479.09;5055317;28;66116;-39
2021/08/18 08:00:54;;;;;;;6.93;0.60;;;;;;;30.57;40.58;100477.25;5048596;28;70916;-38
2021/08/18 08:03:45;;;;;;;0.85;0.40;;;;;;;30.59;40.84;100481.38;5054322;28;66388;-38
2021/08/18 08:06:16;;;;;;;4.63;0.52;;;;;;;30.62;40.65;100472.78;5033287;28;69538;-40
2021/08/18 08:08:48;;;;;;;12.95;0.60;;;;;;;30.61;40.23;100471.13;5052695;28;66556;-40
2021/08/18 08:11:24;;;;;;;4.15;0.60;;;;;;;30.63;40.36;100469.00;5041964;28;69992;-38
2021/08/18 08:13:56;;;;;;;1.27;0.93;;;;;;;30.67;40.32;100470.22;5054133;28;65382;-38
2021/08/18 08:16:27;;;;;;;;;;;;;;;30.45;39.97;100466.31;5056585;28;69508;-40
2021/08/18 08:18:58;;;;;;;6.72;0.43;;;;;;;30.67;40.21;100470.22;5054657;28;66271;-40
2021/08/18 08:21:30;;;;;;;1.25;0.40;;;;;;;30.68;40.22;100454.81;5055554;28;70924;-39
2021/08/18 08:24:01;;;;;;;3.83;0.40;;;;;;;30.58;40.15;100441.81;5041364;28;66379;-39
2021/08/18 08:26:33;;;;;;;9.70;0.50;;;;;;;30.68;40.14;100457.50;5052542;28;70483;-40
2021/08/18 08:29:04;;;;;;;4.90;0.45;;;;;;;30.68;39.69;100449.38;5060913;28;66475;-40
2021/08/18 08:31:37;;;;;;;3.25;0.50;;;;;;;30.71;39.84;100449.75;5038487;28;70657;-39
2021/08/18 08:34:09;;;;;;;1.75;0.47;;;;;;;30.71;39.49;100440.81;5046724;28;65494;-38
2021/08/18 08:36:41;;;;;;;9.90;0.60;;;;;;;30.75;39.67;100441.97;5051826;28;70141;-40
2021/08/18 08:39:16;;;;;;;2.67;0.50;;;;;;;30.75;39.59;100444.69;5051904;28;65421;-40
2021/08/18 08:41:49;;;;;;;10.23;0.50;;;;;;;30.75;40.23;100438.47;5053722;28;70350;-40
2021/08/18 08:44:25;;;;;;;19.77;0.70;;;;;;;30.77;39.86;100442.59;5055226;28;66840;-39
2021/08/18 08:46:59;;;;;;;13.60;0.68;;;;;;;30.79;41.04;100440.47;5057462;27;70347;-40
2021/08/18 08:49:31;;;;;;;14.02;1.13;;;;;;;30.84;46.44;100437.09;5055359;28;65847;-39
2021/08/18 08:52:03;;;;;;;6.30;1.88;;;;;;;30.99;50.31;100434.81;5062716;28;70279;-39
2021/08/18 08:54:34;;;;;;;3.22;1.90;;;;;;;31.16;51.00;100435.78;5034522;28;66335;-39
2021/08/18 08:57:08;;;;;;;2.25;2.05;;;;;;;31.24;52.93;100414.81;5053471;28;69884;-39
2021/08/18 08:59:48;;;;;;;2.83;2.30;;;;;;;31.51;53.60;100437.75;5048856;28;66762;-39
2021/08/18 09:02:22;;;;;;;3.08;2.78;;;;;;;31.69;53.22;100427.84;5053761;28;70344;-39
2021/08/18 09:04:55;;;;;;;6.53;2.80;;;;;;;31.63;53.71;100402.50;5032556;28;65640;-39
2021/08/18 09:07:26;;;;;;;6.50;3.10;;;;;;;31.88;53.99;100431.25;5062988;28;70417;-39
2021/08/18 09:09:59;;;;;;;6.13;2.92;;;;;;;32.04;53.62;100428.66;5063028;27;65306;-41
2021/08/18 09:12:39;;;;;;;8.15;3.40;;;;;;;32.17;53.76;100429.44;5052405;28;70238;-39
2021/08/18 09:15:27;;;;;;;5.70;4.00;;;;;;;32.27;53.95;100430.47;5042859;28;66387;-39
2021/08/18 09:17:59;;;;;;;4.03;3.60;;;;;;;32.37;53.28;100429.00;5054472;28;70742;-39
2021/08/18 09:20:31;;;;;;;3.72;3.53;;;;;;;32.45;54.06;100425.91;5050973;28;66397;-39
2021/08/18 09:23:05;;;;;;;4.28;3.20;;;;;;;32.25;53.78;100391.06;5060930;28;69838;-41
2021/08/18 09:25:39;;;;;;;3.92;3.72;;;;;;;32.56;53.73;100429.69;5064014;28;66255;-41
2021/08/18 09:28:24;;;;;;;2.67;2.47;;;;;;;32.48;54.18;100410.03;5057095;28;70761;-40
2021/08/18 09:30:58;;;;;;;4.87;3.43;;;;;;;32.60;54.21;100431.69;5049404;28;66209;-40
2021/08/18 09:33:34;;;;;;;5.40;3.85;;;;;;;32.69;54.67;100437.53;5056869;28;69782;-40
2021/08/18 09:36:05;;;;;;;5.68;3.40;;;;;;;32.69;54.28;100437.53;5053931;28;66272;-40
2021/08/18 09:38:38;;;;;;;3.42;3.22;;;;;;;32.71;54.23;100435.41;5055989;28;69981;-40
2021/08/18 09:41:18;;;;;;;6.53;3.50;;;;;;;32.76;54.43;100432.78;5038009;28;66250;-41
2021/08/18 09:43:49;;;;;;;3.35;3.15;;;;;;;32.78;54.32;100424.38;5059848;27;69980;-40
2021/08/18 09:46:29;;;;;;;3.75;3.55;;;;;;;32.82;54.65;100431.81;5063452;28;67755;-41
2021/08/18 09:49:11;;;;;;;3.72;3.42;;;;;;;32.80;54.92;100420.38;5053289;28;70114;-40
2021/08/18 09:51:58;;;;;;;3.55;2.90;;;;;;;32.85;54.75;100434.03;5054089;28;66202;-40
2021/08/18 09:54:38;;;;;;;4.45;3.03;;;;;;;32.87;55.60;100434.59;5056253;27;70446;-41
2021/08/18 09:57:09;;;;;;;4.93;2.55;;;;;;;32.88;55.71;100424.59;5052498;28;66891;-40
2021/08/18 09:59:45;;;;;;;3.42;2.45;;;;;;;32.83;55.93;100421.78;5046723;28;69382;-41
2021/08/18 10:02:17;;;;;;;4.72;2.50;;;;;;;32.87;55.98;100425.63;5055137;27;66633;-41
2021/08/18 10:04:49;;;;;;;4.43;1.98;;;;;;;32.86;56.22;100427.53;5049296;28;69672;-41
2021/08/18 10:07:20;;;;;;;2.47;1.92;;;;;;;32.89;56.74;100431.66;5046944;28;65131;-41
2021/08/18 10:09:52;;;;;;;2.60;2.40;;;;;;;32.89;56.91;100429.75;5059527;28;68900;-41
2021/08/18 10:12:22;;;;;;;4.00;2.55;;;;;;;32.87;58.16;100434.59;5041635;28;66422;-43
2021/08/18 10:14:52;;;;;;;7.72;2.20;;;;;;;32.94;57.63;100432.56;5057326;28;70172;-41
2021/08/18 10:17:23;;;;;;;5.72;2.10;;;;;;;32.93;57.42;100430.94;5052773;28;66240;-41
2021/08/18 10:19:54;;;;;;;1.77;1.67;;;;;;;32.99;57.17;100431.84;5049706;28;70022;-41
2021/08/18 10:22:31;;;;;;;3.70;1.77;;;;;;;33.04;57.09;100439.28;5049364;28;66559;-41
2021/08/18 10:25:34;;;;;;;2.22;1.65;;;;;;;33.03;56.68;100426.75;5047644;28;70004;-41
2021/08/18 10:28:08;;;;;;;1.83;1.73;;;;;;;33.10;56.02;100427.44;5048916;28;66291;-41
2021/08/18 10:30:55;;;;;;;3.58;1.40;;;;;;;33.05;56.44;100425.44;5046109;28;69505;-41
2021/08/18 10:33:58;;;;;;;1.50;1.35;;;;;;;33.00;56.35;100433.50;5049665;28;65393;-40
2021/08/18 10:36:56;;;;;;;1.60;1.50;;;;;;;33.05;56.31;100447.19;5019393;28;70573;-40
2021/08/18 10:39:34;;;;;;;1.60;1.50;;;;;;;33.11;56.10;100451.63;5045996;28;66069;-41
2021/08/18 10:42:04;;;;;;;1.65;1.55;;;;;;;33.16;55.79;100464.50;5034891;28;70403;-40
2021/08/18 10:44:49;;;;;;;2.60;1.38;;;;;;;33.14;55.54;100456.56;5043848;28;66058;-40
2021/08/18 10:47:22;;;;;;;1.30;1.20;;;;;;;33.17;55.82;100471.56;5047131;28;69237;-41
2021/08/18 10:50:24;;;;;;;3.40;1.38;;;;;;;33.07;56.17;100463.22;5044763;28;65940;-41
2021/08/18 10:52:55;;;;;;;1.52;1.42;;;;;;;33.12;55.71;100464.16;5048068;28;70089;-40
2021/08/18 10:55:26;;;;;;;1.70;1.60;;;;;;;33.13;55.74;100470.44;5046925;28;66263;-41
2021/08/18 10:58:05;;;;;;;1.70;1.60;;;;;;;33.12;55.67;100457.88;5047566;28;70092;-40
2021/08/18 11:00:42;;;;;;;3.63;1.60;;;;;;;32.93;55.67;100439.09;5045370;28;65428;-41
2021/08/18 11:03:19;;;;;;;2.58;1.70;;;;;;;33.14;55.54;100472.06;5052023;28;69516;-41
2021/08/18 11:05:54;;;;;;;1.63;1.52;;;;;;;33.12;55.71;100468.75;5056070;28;65543;-41
2021/08/18 11:08:28;;;;;;;8.63;2.50;;;;;;;33.12;56.48;100471.47;5053419;28;69541;-40
2021/08/18 11:11:00;;;;;;;14.40;2.60;;;;;;;33.05;56.25;100476.25;5050636;28;65918;-40
2021/08/18 11:13:45;;;;;;;15.68;3.05;;;;;;;32.85;54.75;100488.38;5049018;27;70156;-41
2021/08/18 11:16:16;;;;;;;8.23;3.20;;;;;;;32.66;54.80;100503.22;5049846;28;65996;-40
2021/08/18 11:18:50;;;;;;;6.82;2.80;;;;;;;32.33;54.05;100479.44;5050727;27;69703;-41
2021/08/18 11:21:29;;;;;;;4.03;2.47;;;;;;;32.36;53.21;100498.78;5056469;28;66370;-40
2021/08/18 11:24:09;;;;;;;2.95;1.70;;;;;;;32.04;51.74;100469.34;5051782;28;70119;-40
2021/08/18 11:26:44;;;;;;;5.55;1.77;;;;;;;31.97;52.31;100479.47;5052380;28;66148;-40
2021/08/18 11:29:20;;;;;;;17.75;2.10;;;;;;;31.83;51.37;100473.44;5053599;28;70016;-39
2021/08/18 11:31:56;;;;;;;10.90;1.95;;;;;;;31.94;51.70;100517.94;5049074;28;65877;-40
2021/08/18 11:34:29;;;;;;;18.38;1.52;;;;;;;31.86;51.22;100520.97;5052833;28;70199;-42
2021/08/18 11:37:08;;;;;;;8.73;1.40;;;;;;;31.63;51.08;100515.53;5048791;28;66382;-42
2021/08/18 11:39:43;;;;;;;18.67;1.85;;;;;;;31.50;51.45;100478.63;5048597;28;70179;-42
2021/08/18 11:42:21;;;;;;;5.65;1.50;;;;;;;31.61;51.39;100513.88;5051807;28;65507;-41
2021/08/18 11:45:03;;;;;;;2.85;1.50;;;;;;;31.55;51.48;100514.81;5055080;28;69222;-43
2021/08/18 11:47:34;;;;;;;12.20;1.50;;;;;;;31.58;51.05;100521.66;5056013;28;65925;-47
2021/08/18 11:50:13;;;;;;;5.13;1.50;;;;;;;31.40;50.33;100495.47;5062724;28;68767;-47